createdAt,value
2018-06-16T00:00:33.751Z,17.45
2018-06-16T00:01:33.747Z,17.48
2018-06-16T00:02:33.753Z,17.48
2018-06-16T00:03:33.753Z,17.48
2018-06-16T00:04:33.755Z,17.54
2018-06-16T00:05:33.760Z,17.52
2018-06-16T00:06:33.762Z,17.49
2018-06-16T00:07:33.760Z,17.42
2018-06-16T00:08:33.768Z,17.52
2018-06-16T00:09:33.767Z,17.41
2018-06-16T00:10:33.776Z,17.44
2018-06-16T00:11:33.775Z,17.44
2018-06-16T00:12:33.779Z,17.44
2018-06-16T00:13:33.774Z,17.44
2018-06-16T00:14:33.783Z,17.46
2018-06-16T00:15:33.787Z,17.51
2018-06-16T00:16:33.788Z,17.48
2018-06-16T00:17:33.791Z,17.42
2018-06-16T00:18:33.793Z,17.49
2018-06-16T00:19:33.794Z,17.52
2018-06-16T00:20:33.801Z,17.48
2018-06-16T00:21:33.801Z,17.48
2018-06-16T00:22:33.806Z,17.45
2018-06-16T00:23:33.804Z,17.41
2018-06-16T00:24:33.811Z,17.48
2018-06-16T00:25:33.816Z,17.46
2018-06-16T00:26:33.807Z,17.39
2018-06-16T00:27:33.818Z,17.44
2018-06-16T00:28:33.818Z,17.48
2018-06-16T00:29:33.814Z,17.46
2018-06-16T00:30:33.826Z,17.41
2018-06-16T00:31:33.829Z,17.34
2018-06-16T00:32:33.829Z,17.34
2018-06-16T00:33:33.831Z,17.36
2018-06-16T00:34:33.835Z,17.33
2018-06-16T00:35:33.837Z,17.27
2018-06-16T00:36:33.839Z,17.36
2018-06-16T00:37:33.842Z,17.33
2018-06-16T00:38:33.845Z,17.39
2018-06-16T00:39:33.844Z,17.34
2018-06-16T00:40:33.849Z,17.30
2018-06-16T00:41:33.853Z,17.22
2018-06-16T00:42:33.858Z,17.36
2018-06-16T00:43:33.856Z,17.36
2018-06-16T00:44:33.858Z,17.42
2018-06-16T00:45:33.864Z,17.42
2018-06-16T00:46:33.869Z,17.39
2018-06-16T00:47:33.868Z,17.42
2018-06-16T00:48:33.874Z,17.48
2018-06-16T00:49:33.874Z,17.45
2018-06-16T00:50:33.880Z,17.48
2018-06-16T00:51:33.878Z,17.44
2018-06-16T00:52:33.881Z,17.48
2018-06-16T00:53:33.886Z,17.44
2018-06-16T00:54:33.887Z,17.48
2018-06-16T00:55:33.884Z,17.46
2018-06-16T00:56:33.894Z,17.48
2018-06-16T00:57:33.894Z,17.39
2018-06-16T00:58:33.900Z,17.44
2018-06-16T00:59:33.911Z,17.48
2018-06-16T01:00:33.903Z,17.48
2018-06-16T01:01:33.906Z,17.38
2018-06-16T01:02:33.908Z,17.56
2018-06-16T01:03:33.909Z,17.41
2018-06-16T01:04:33.908Z,17.42
2018-06-16T01:05:33.918Z,17.45
2018-06-16T01:06:33.919Z,17.46
2018-06-16T01:07:33.922Z,17.49
2018-06-16T01:08:33.925Z,17.51
2018-06-16T01:09:33.930Z,17.48
2018-06-16T01:10:33.931Z,17.45
2018-06-16T01:11:33.932Z,17.48
2018-06-16T01:12:33.938Z,17.56
2018-06-16T01:13:33.933Z,17.54
2018-06-16T01:14:33.943Z,17.52
2018-06-16T01:15:33.945Z,17.44
2018-06-16T01:16:33.948Z,17.41
2018-06-16T01:17:33.951Z,17.45
2018-06-16T01:18:33.953Z,17.59
2018-06-16T01:19:33.954Z,17.54
2018-06-16T01:20:33.948Z,17.52
2018-06-16T01:21:33.960Z,17.49
2018-06-16T01:22:33.962Z,17.57
2018-06-16T01:23:33.965Z,17.49
2018-06-16T01:24:33.972Z,17.54
2018-06-16T01:25:33.969Z,17.49
2018-06-16T01:26:33.977Z,17.54
2018-06-16T01:27:33.978Z,17.54
2018-06-16T01:28:33.979Z,17.46
2018-06-16T01:29:33.983Z,17.44
2018-06-16T01:30:33.985Z,17.49
2018-06-16T01:31:33.987Z,17.49
2018-06-16T01:32:33.989Z,17.42
2018-06-16T01:33:33.992Z,17.49
2018-06-16T01:34:33.995Z,17.48
2018-06-16T01:35:33.998Z,17.44
2018-06-16T01:36:34.000Z,17.46
2018-06-16T01:37:34.004Z,17.44
2018-06-16T01:38:34.006Z,17.44
2018-06-16T01:39:34.009Z,17.45
2018-06-16T01:40:34.010Z,17.49
2018-06-16T01:41:34.013Z,17.44
2018-06-16T01:42:34.017Z,17.56
2018-06-16T01:43:34.017Z,17.64
2018-06-16T01:44:34.019Z,17.59
2018-06-16T01:45:34.024Z,17.52
2018-06-16T01:46:34.030Z,17.57
2018-06-16T01:47:34.028Z,17.52
2018-06-16T01:48:34.034Z,17.48
2018-06-16T01:49:34.035Z,17.60
2018-06-16T01:50:34.038Z,17.59
2018-06-16T01:51:34.043Z,17.52
2018-06-16T01:52:34.043Z,17.54
2018-06-16T01:53:34.045Z,17.54
2018-06-16T01:54:34.052Z,17.59
2018-06-16T01:55:34.052Z,17.63
2018-06-16T01:56:34.054Z,17.59
2018-06-16T01:57:34.056Z,17.51
2018-06-16T01:58:34.062Z,17.59
2018-06-16T01:59:34.063Z,17.54
2018-06-16T02:00:34.066Z,17.56
2018-06-16T02:01:34.068Z,17.49
2018-06-16T02:02:34.071Z,17.49
2018-06-16T02:03:34.073Z,17.59
2018-06-16T02:04:34.075Z,17.56
2018-06-16T02:05:34.079Z,17.51
2018-06-16T02:06:34.076Z,17.54
2018-06-16T02:07:34.083Z,17.54
2018-06-16T02:08:34.081Z,17.51
2018-06-16T02:09:34.088Z,17.60
2018-06-16T02:10:34.092Z,17.54
2018-06-16T02:11:34.095Z,17.57
2018-06-16T02:12:34.096Z,17.57
2018-06-16T02:13:34.104Z,17.54
2018-06-16T02:14:34.103Z,17.59
2018-06-16T02:15:34.107Z,17.57
2018-06-16T02:16:34.108Z,17.56
2018-06-16T02:17:34.111Z,17.56
2018-06-16T02:18:34.115Z,17.56
2018-06-16T02:19:34.116Z,17.54
2018-06-16T02:20:34.123Z,17.51
2018-06-16T02:21:34.123Z,17.63
2018-06-16T02:22:34.125Z,17.60
2018-06-16T02:23:34.133Z,17.64
2018-06-16T02:24:34.130Z,17.60
2018-06-16T02:25:34.134Z,17.64
2018-06-16T02:26:34.137Z,17.57
2018-06-16T02:27:34.140Z,17.60
2018-06-16T02:28:34.140Z,17.60
2018-06-16T02:29:34.144Z,17.67
2018-06-16T02:30:34.151Z,17.57
2018-06-16T02:31:34.150Z,17.59
2018-06-16T02:32:34.146Z,17.56
2018-06-16T02:33:34.154Z,17.68
2018-06-16T02:34:34.157Z,17.60
2018-06-16T02:35:34.163Z,17.54
2018-06-16T02:36:34.160Z,17.59
2018-06-16T02:37:34.167Z,17.63
2018-06-16T02:38:34.168Z,17.63
2018-06-16T02:39:34.166Z,17.60
2018-06-16T02:40:34.173Z,17.63
2018-06-16T02:41:34.176Z,17.51
2018-06-16T02:42:34.183Z,17.49
2018-06-16T02:43:34.177Z,17.51
2018-06-16T02:44:34.184Z,17.52
2018-06-16T02:45:34.186Z,17.52
2018-06-16T02:46:34.194Z,17.63
2018-06-16T02:47:34.195Z,17.65
2018-06-16T02:48:34.199Z,17.57
2018-06-16T02:49:34.199Z,17.57
2018-06-16T02:50:34.374Z,17.65
2018-06-16T02:51:34.232Z,17.60
2018-06-16T02:52:34.207Z,17.60
2018-06-16T02:53:34.208Z,17.64
2018-06-16T02:54:34.210Z,17.64
2018-06-16T02:55:34.213Z,17.70
2018-06-16T02:56:34.213Z,17.65
2018-06-16T02:57:34.220Z,17.68
2018-06-16T02:58:34.219Z,17.72
2018-06-16T02:59:34.219Z,17.74
2018-06-16T03:00:34.230Z,17.79
2018-06-16T03:01:34.234Z,17.70
2018-06-16T03:02:34.237Z,17.76
2018-06-16T03:03:34.238Z,17.70
2018-06-16T03:04:34.244Z,17.65
2018-06-16T03:05:34.251Z,17.70
2018-06-16T03:06:34.245Z,17.72
2018-06-16T03:07:34.248Z,17.71
2018-06-16T03:08:34.251Z,17.74
2018-06-16T03:09:34.254Z,17.74
2018-06-16T03:10:34.258Z,17.78
2018-06-16T03:11:34.258Z,17.72
2018-06-16T03:12:34.267Z,17.76
2018-06-16T03:13:34.269Z,17.76
2018-06-16T03:14:34.268Z,17.79
2018-06-16T03:15:34.264Z,17.80
2018-06-16T03:16:34.272Z,17.78
2018-06-16T03:17:34.275Z,17.79
2018-06-16T03:18:34.280Z,17.79
2018-06-16T03:19:34.280Z,17.79
2018-06-16T03:20:34.278Z,17.85
2018-06-16T03:21:34.286Z,17.82
2018-06-16T03:22:34.292Z,17.78
2018-06-16T03:23:34.343Z,17.82
2018-06-16T03:24:34.296Z,17.79
2018-06-16T03:25:34.302Z,17.80
2018-06-16T03:26:34.302Z,17.76
2018-06-16T03:27:34.305Z,17.79
2018-06-16T03:28:34.309Z,17.83
2018-06-16T03:29:34.313Z,17.79
2018-06-16T03:30:34.323Z,17.83
2018-06-16T03:31:34.310Z,17.79
2018-06-16T03:32:34.315Z,17.85
2018-06-16T03:33:34.317Z,17.83
2018-06-16T03:34:34.325Z,17.85
2018-06-16T03:35:34.325Z,17.83
2018-06-16T03:36:34.328Z,17.86
2018-06-16T03:37:34.334Z,17.86
2018-06-16T03:38:34.336Z,17.94
2018-06-16T03:39:34.337Z,17.92
2018-06-16T03:40:34.342Z,17.97
2018-06-16T03:41:34.344Z,17.95
2018-06-16T03:42:34.347Z,17.95
2018-06-16T03:43:34.349Z,18.03
2018-06-16T03:44:34.353Z,17.98
2018-06-16T03:45:34.355Z,18.04
2018-06-16T03:46:34.356Z,18.03
2018-06-16T03:47:34.363Z,17.98
2018-06-16T03:48:34.370Z,18.00
2018-06-16T03:49:34.369Z,18.11
2018-06-16T03:50:34.376Z,18.15
2018-06-16T03:51:34.376Z,18.13
2018-06-16T03:52:34.377Z,18.15
2018-06-16T03:53:34.380Z,18.10
2018-06-16T03:54:34.385Z,18.13
2018-06-16T03:55:34.384Z,18.15
2018-06-16T03:56:34.387Z,17.98
2018-06-16T03:57:34.392Z,18.08
2018-06-16T03:58:34.392Z,18.11
2018-06-16T03:59:34.397Z,18.18
2018-06-16T04:00:34.399Z,17.97
2018-06-16T04:01:34.397Z,18.13
2018-06-16T04:02:34.407Z,18.05
2018-06-16T04:03:34.413Z,18.11
2018-06-16T04:04:34.413Z,18.00
2018-06-16T04:05:34.416Z,18.05
2018-06-16T04:06:34.419Z,18.00
2018-06-16T04:07:34.422Z,18.15
2018-06-16T04:08:34.422Z,18.13
2018-06-16T04:09:34.433Z,18.11
2018-06-16T04:10:34.429Z,18.11
2018-06-16T04:11:34.432Z,18.01
2018-06-16T04:12:34.435Z,18.13
2018-06-16T04:13:34.439Z,18.11
2018-06-16T04:14:34.442Z,18.11
2018-06-16T04:15:34.447Z,18.08
2018-06-16T04:16:34.449Z,18.15
2018-06-16T04:17:34.450Z,18.11
2018-06-16T04:18:34.456Z,18.13
2018-06-16T04:19:34.458Z,18.10
2018-06-16T04:20:34.461Z,18.13
2018-06-16T04:21:34.463Z,18.08
2018-06-16T04:22:34.467Z,18.13
2018-06-16T04:23:34.463Z,18.13
2018-06-16T04:24:34.467Z,18.22
2018-06-16T04:25:34.473Z,18.19
2018-06-16T04:26:34.476Z,18.19
2018-06-16T04:27:34.482Z,18.23
2018-06-16T04:28:34.493Z,18.25
2018-06-16T04:29:34.495Z,18.26
2018-06-16T04:30:34.493Z,18.23
2018-06-16T04:31:34.494Z,18.28
2018-06-16T04:32:34.495Z,18.25
2018-06-16T04:33:34.526Z,18.33
2018-06-16T04:34:34.507Z,18.29
2018-06-16T04:35:34.507Z,18.28
2018-06-16T04:36:34.511Z,18.20
2018-06-16T04:37:34.510Z,18.23
2018-06-16T04:38:34.524Z,18.34
2018-06-16T04:39:34.520Z,18.33
2018-06-16T04:40:34.523Z,18.38
2018-06-16T04:41:34.527Z,18.28
2018-06-16T04:42:34.528Z,18.33
2018-06-16T04:43:34.537Z,18.37
2018-06-16T04:44:34.538Z,18.38
2018-06-16T04:45:34.571Z,18.44
2018-06-16T04:46:34.543Z,18.47
2018-06-16T04:47:34.546Z,18.45
2018-06-16T04:48:34.552Z,18.45
2018-06-16T04:49:34.554Z,18.49
2018-06-16T04:50:34.559Z,18.50
2018-06-16T04:51:34.555Z,18.55
2018-06-16T04:52:34.563Z,18.60
2018-06-16T04:53:34.568Z,18.58
2018-06-16T04:54:34.564Z,18.66
2018-06-16T04:55:34.570Z,18.58
2018-06-16T04:56:34.576Z,18.65
2018-06-16T04:57:34.585Z,18.58
2018-06-16T04:58:34.585Z,18.55
2018-06-16T04:59:34.587Z,18.60
2018-06-16T05:00:34.588Z,18.58
2018-06-16T05:01:34.594Z,18.66
2018-06-16T05:02:34.595Z,18.70
2018-06-16T05:03:34.603Z,18.70
2018-06-16T05:04:34.605Z,18.62
2018-06-16T05:05:34.609Z,18.63
2018-06-16T05:06:34.605Z,18.68
2018-06-16T05:07:34.609Z,18.68
2018-06-16T05:08:34.632Z,18.68
2018-06-16T05:09:34.624Z,18.58
2018-06-16T05:10:34.634Z,18.60
2018-06-16T05:11:34.627Z,18.62
2018-06-16T05:12:34.630Z,18.78
2018-06-16T05:13:34.635Z,18.75
2018-06-16T05:14:34.639Z,18.63
2018-06-16T05:15:34.642Z,18.78
2018-06-16T05:16:34.646Z,18.73
2018-06-16T05:17:34.651Z,18.77
2018-06-16T05:18:34.655Z,18.81
2018-06-16T05:19:34.656Z,18.77
2018-06-16T05:20:34.663Z,18.77
2018-06-16T05:21:34.662Z,18.74
2018-06-16T05:22:34.669Z,18.78
2018-06-16T05:23:34.669Z,18.81
2018-06-16T05:24:34.674Z,18.83
2018-06-16T05:25:34.720Z,18.83
2018-06-16T05:26:34.676Z,18.92
2018-06-16T05:27:34.679Z,18.86
2018-06-16T05:28:34.690Z,18.93
2018-06-16T05:29:34.693Z,18.90
2018-06-16T05:30:34.696Z,18.84
2018-06-16T05:31:34.699Z,18.88
2018-06-16T05:32:34.702Z,18.98
2018-06-16T05:33:34.706Z,18.98
2018-06-16T05:34:34.704Z,18.89
2018-06-16T05:35:34.714Z,18.96
2018-06-16T05:36:34.722Z,18.95
2018-06-16T05:37:34.725Z,18.93
2018-06-16T05:38:34.728Z,18.95
2018-06-16T05:39:34.728Z,18.99
2018-06-16T05:40:34.734Z,18.93
2018-06-16T05:41:34.738Z,19.00
2018-06-16T05:42:34.736Z,18.96
2018-06-16T05:43:34.745Z,19.09
2018-06-16T05:44:34.749Z,19.00
2018-06-16T05:45:34.752Z,19.07
2018-06-16T05:46:34.757Z,19.02
2018-06-16T05:47:34.758Z,19.02
2018-06-16T05:48:34.765Z,19.02
2018-06-16T05:49:34.767Z,19.08
2018-06-16T05:50:34.773Z,19.11
2018-06-16T05:51:34.776Z,19.07
2018-06-16T05:52:34.780Z,19.09
2018-06-16T05:53:34.783Z,19.02
2018-06-16T05:54:34.787Z,18.98
2018-06-16T05:55:34.789Z,19.09
2018-06-16T05:56:34.799Z,19.14
2018-06-16T05:57:34.800Z,19.12
2018-06-16T05:58:34.805Z,19.19
2018-06-16T05:59:34.807Z,19.08
2018-06-16T06:00:34.843Z,19.15
2018-06-16T06:01:34.811Z,19.15
2018-06-16T06:02:34.815Z,19.19
2018-06-16T06:03:34.818Z,19.26
2018-06-16T06:04:34.825Z,19.26
2018-06-16T06:05:34.829Z,19.29
2018-06-16T06:06:34.833Z,19.24
2018-06-16T06:07:34.837Z,19.26
2018-06-16T06:08:34.843Z,19.34
2018-06-16T06:09:34.847Z,19.27
2018-06-16T06:10:34.884Z,19.30
2018-06-16T06:11:34.848Z,19.34
2018-06-16T06:12:34.856Z,19.30
2018-06-16T06:13:34.865Z,19.37
2018-06-16T06:14:34.870Z,19.36
2018-06-16T06:15:34.871Z,19.39
2018-06-16T06:16:34.874Z,19.44
2018-06-16T06:17:34.879Z,19.52
2018-06-16T06:18:34.883Z,19.49
2018-06-16T06:19:34.891Z,19.49
2018-06-16T06:20:34.892Z,19.49
2018-06-16T06:21:34.922Z,19.56
2018-06-16T06:22:34.904Z,19.55
2018-06-16T06:23:34.904Z,19.56
2018-06-16T06:24:34.911Z,19.48
2018-06-16T06:25:34.908Z,19.66
2018-06-16T06:26:34.915Z,19.59
2018-06-16T06:27:34.920Z,19.66
2018-06-16T06:28:34.925Z,19.63
2018-06-16T06:29:34.928Z,19.62
2018-06-16T06:30:34.935Z,19.59
2018-06-16T06:31:34.940Z,19.69
2018-06-16T06:32:34.943Z,19.66
2018-06-16T06:33:34.947Z,19.63
2018-06-16T06:34:34.958Z,19.67
2018-06-16T06:35:34.958Z,19.82
2018-06-16T06:36:34.960Z,19.73
2018-06-16T06:37:34.971Z,19.81
2018-06-16T06:38:34.969Z,19.84
2018-06-16T06:39:34.978Z,19.70
2018-06-16T06:40:34.979Z,19.82
2018-06-16T06:41:34.986Z,19.84
2018-06-16T06:42:34.980Z,19.82
2018-06-16T06:43:34.991Z,19.77
2018-06-16T06:44:34.994Z,19.89
2018-06-16T06:45:35.000Z,19.76
2018-06-16T06:46:35.006Z,19.89
2018-06-16T06:47:35.008Z,19.85
2018-06-16T06:48:35.007Z,19.92
2018-06-16T06:49:35.018Z,19.91
2018-06-16T06:50:35.023Z,19.94
2018-06-16T06:51:35.052Z,19.94
2018-06-16T06:52:35.031Z,19.86
2018-06-16T06:53:35.039Z,19.94
2018-06-16T06:54:35.042Z,19.99
2018-06-16T06:55:35.043Z,19.96
2018-06-16T06:56:35.051Z,20.00
2018-06-16T06:57:35.053Z,19.99
2018-06-16T06:58:35.058Z,20.11
2018-06-16T06:59:35.064Z,20.10
2018-06-16T07:00:35.072Z,20.07
2018-06-16T07:01:35.073Z,20.13
2018-06-16T07:02:35.080Z,20.21
2018-06-16T07:03:35.083Z,20.13
2018-06-16T07:04:35.088Z,20.13
2018-06-16T07:05:35.092Z,20.19
2018-06-16T07:06:35.098Z,20.19
2018-06-16T07:07:35.101Z,20.16
2018-06-16T07:08:35.107Z,20.24
2018-06-16T07:09:35.111Z,20.18
2018-06-16T07:10:35.141Z,20.36
2018-06-16T07:11:35.126Z,20.32
2018-06-16T07:12:35.129Z,20.37
2018-06-16T07:13:35.126Z,20.48
2018-06-16T07:14:35.138Z,20.47
2018-06-16T07:15:35.143Z,20.44
2018-06-16T07:16:35.143Z,20.50
2018-06-16T07:17:35.153Z,20.62
2018-06-16T07:18:35.159Z,20.66
2018-06-16T07:19:35.176Z,20.59
2018-06-16T07:20:35.166Z,20.74
2018-06-16T07:21:35.170Z,20.72
2018-06-16T07:22:35.170Z,20.78
2018-06-16T07:23:35.225Z,20.74
2018-06-16T07:24:35.216Z,20.77
2018-06-16T07:25:35.214Z,20.80
2018-06-16T07:26:35.221Z,20.85
2018-06-16T07:27:35.204Z,20.82
2018-06-16T07:28:35.209Z,20.84
2018-06-16T07:29:35.212Z,20.80
2018-06-16T07:30:35.227Z,20.90
2018-06-16T07:31:35.227Z,20.92
2018-06-16T07:32:35.222Z,20.90
2018-06-16T07:33:35.234Z,20.88
2018-06-16T07:34:35.239Z,20.92
2018-06-16T07:35:35.245Z,20.97
2018-06-16T07:36:35.248Z,20.92
2018-06-16T07:37:35.257Z,20.95
2018-06-16T07:38:35.262Z,20.99
2018-06-16T07:39:35.269Z,20.88
2018-06-16T07:40:35.266Z,20.96
2018-06-16T07:41:35.310Z,20.77
2018-06-16T07:42:35.284Z,20.85
2018-06-16T07:43:35.283Z,20.96
2018-06-16T07:44:35.294Z,20.93
2018-06-16T07:45:35.294Z,20.92
2018-06-16T07:46:35.308Z,21.02
2018-06-16T07:47:35.311Z,21.03
2018-06-16T07:48:35.310Z,21.06
2018-06-16T07:49:35.322Z,21.12
2018-06-16T07:50:35.326Z,21.20
2018-06-16T07:51:35.330Z,21.24
2018-06-16T07:52:35.383Z,21.35
2018-06-16T07:53:35.349Z,21.36
2018-06-16T07:54:35.355Z,21.35
2018-06-16T07:55:35.355Z,21.48
2018-06-16T07:56:35.362Z,21.46
2018-06-16T07:57:35.368Z,21.51
2018-06-16T07:58:35.374Z,21.46
2018-06-16T07:59:35.378Z,21.45
2018-06-16T08:00:35.385Z,21.27
2018-06-16T08:01:35.399Z,21.27
2018-06-16T08:02:35.402Z,21.20
2018-06-16T08:03:35.402Z,21.35
2018-06-16T08:04:35.408Z,21.36
2018-06-16T08:05:35.409Z,21.50
2018-06-16T08:06:35.445Z,21.57
2018-06-16T08:07:35.424Z,21.67
2018-06-16T08:08:35.430Z,21.73
2018-06-16T08:09:35.499Z,21.96
2018-06-16T08:10:35.442Z,22.10
2018-06-16T08:11:35.446Z,22.07
2018-06-16T08:12:35.459Z,22.18
2018-06-16T08:13:35.462Z,22.20
2018-06-16T08:14:35.467Z,22.29
2018-06-16T08:15:35.474Z,22.35
2018-06-16T08:16:35.541Z,22.41
2018-06-16T08:17:35.491Z,22.41
2018-06-16T08:18:35.501Z,22.39
2018-06-16T08:19:35.500Z,22.51
2018-06-16T08:20:35.510Z,22.55
2018-06-16T08:21:35.513Z,22.44
2018-06-16T08:22:35.537Z,22.41
2018-06-16T08:23:35.533Z,22.53
2018-06-16T08:24:35.593Z,22.55
2018-06-16T08:25:35.541Z,22.73
2018-06-16T08:26:35.553Z,22.76
2018-06-16T08:27:35.553Z,22.76
2018-06-16T08:28:35.567Z,22.87
2018-06-16T08:29:35.570Z,22.94
2018-06-16T08:30:35.576Z,23.03
2018-06-16T08:31:35.580Z,23.06
2018-06-16T08:32:35.590Z,23.03
2018-06-16T08:33:35.594Z,23.13
2018-06-16T08:34:35.600Z,23.28
2018-06-16T08:35:35.607Z,23.32
2018-06-16T08:36:35.629Z,23.56
2018-06-16T08:37:35.620Z,23.51
2018-06-16T08:38:35.634Z,23.41
2018-06-16T08:39:35.642Z,23.32
2018-06-16T08:40:35.647Z,23.39
2018-06-16T08:41:35.655Z,23.27
2018-06-16T08:42:35.664Z,23.17
2018-06-16T08:43:35.675Z,23.00
2018-06-16T08:44:35.674Z,23.08
2018-06-16T08:45:35.687Z,23.20
2018-06-16T08:46:35.695Z,23.20
2018-06-16T08:47:35.702Z,23.34
2018-06-16T08:48:35.711Z,23.55
2018-06-16T08:49:35.717Z,23.69
2018-06-16T08:50:35.725Z,23.96
2018-06-16T08:51:35.732Z,23.95
2018-06-16T08:52:35.738Z,23.91
2018-06-16T08:53:35.750Z,23.77
2018-06-16T08:54:35.754Z,23.86
2018-06-16T08:55:35.877Z,24.06
2018-06-16T08:56:35.771Z,24.02
2018-06-16T08:57:35.775Z,24.17
2018-06-16T08:58:35.787Z,24.39
2018-06-16T08:59:35.795Z,24.45
2018-06-16T09:00:35.804Z,24.48
2018-06-16T09:01:35.821Z,24.57
2018-06-16T09:02:35.820Z,24.48
2018-06-16T09:03:35.824Z,24.51
2018-06-16T09:04:35.838Z,24.66
2018-06-16T09:05:35.849Z,24.60
2018-06-16T09:06:35.855Z,24.60
2018-06-16T09:07:35.864Z,24.73
2018-06-16T09:08:35.870Z,24.74
2018-06-16T09:09:35.879Z,24.74
2018-06-16T09:10:35.890Z,24.60
2018-06-16T09:11:35.914Z,24.47
2018-06-16T09:12:35.904Z,24.38
2018-06-16T09:13:35.922Z,24.40
2018-06-16T09:14:35.920Z,24.30
2018-06-16T09:15:35.928Z,24.45
2018-06-16T09:16:35.934Z,24.58
2018-06-16T09:17:35.949Z,24.53
2018-06-16T09:18:35.951Z,24.51
2018-06-16T09:19:35.963Z,24.60
2018-06-16T09:20:35.993Z,24.68
2018-06-16T09:21:35.987Z,24.84
2018-06-16T09:22:35.991Z,24.80
2018-06-16T09:23:36.002Z,24.69
2018-06-16T09:24:36.001Z,24.65
2018-06-16T09:25:36.012Z,24.66
2018-06-16T09:26:36.029Z,24.63
2018-06-16T09:27:36.033Z,24.57
2018-06-16T09:28:36.038Z,24.60
2018-06-16T09:29:36.051Z,24.61
2018-06-16T09:30:36.055Z,24.74
2018-06-16T09:31:36.066Z,24.78
2018-06-16T09:32:36.069Z,24.86
2018-06-16T09:33:36.085Z,24.92
2018-06-16T09:34:36.087Z,24.93
2018-06-16T09:35:36.097Z,24.89
2018-06-16T09:36:36.103Z,24.95
2018-06-16T09:37:36.120Z,24.91
2018-06-16T09:38:36.113Z,24.91
2018-06-16T09:39:36.143Z,24.92
2018-06-16T09:40:36.136Z,24.76
2018-06-16T09:41:36.146Z,24.68
2018-06-16T09:42:36.173Z,24.48
2018-06-16T09:43:36.153Z,24.51
2018-06-16T09:44:36.161Z,24.47
2018-06-16T09:45:36.179Z,24.48
2018-06-16T09:46:36.184Z,24.58
2018-06-16T09:47:36.193Z,24.65
2018-06-16T09:48:36.192Z,24.73
2018-06-16T09:49:36.209Z,24.61
2018-06-16T09:50:36.217Z,24.58
2018-06-16T09:51:36.225Z,24.48
2018-06-16T09:52:36.233Z,24.47
2018-06-16T09:53:36.249Z,24.43
2018-06-16T09:54:36.246Z,24.40
2018-06-16T09:55:36.263Z,24.35
2018-06-16T09:56:36.265Z,24.39
2018-06-16T09:57:36.272Z,24.40
2018-06-16T09:58:36.287Z,24.45
2018-06-16T09:59:36.293Z,24.51
2018-06-16T10:00:36.296Z,24.55
2018-06-16T10:01:36.317Z,24.47
2018-06-16T10:02:36.315Z,24.47
2018-06-16T10:03:36.323Z,24.50
2018-06-16T10:04:36.334Z,24.45
2018-06-16T10:05:36.339Z,24.42
2018-06-16T10:06:36.344Z,24.47
2018-06-16T10:07:36.351Z,24.42
2018-06-16T10:08:36.360Z,24.48
2018-06-16T10:09:36.370Z,24.43
2018-06-16T10:10:36.376Z,24.47
2018-06-16T10:11:36.391Z,24.42
2018-06-16T10:12:36.391Z,24.43
2018-06-16T10:13:36.398Z,24.40
2018-06-16T10:14:36.408Z,24.43
2018-06-16T10:15:36.414Z,24.54
2018-06-16T10:16:36.424Z,24.50
2018-06-16T10:17:36.431Z,24.50
2018-06-16T10:18:36.437Z,24.50
2018-06-16T10:19:36.444Z,24.45
2018-06-16T10:20:36.451Z,24.53
2018-06-16T10:21:36.465Z,24.61
2018-06-16T10:22:36.473Z,24.61
2018-06-16T10:23:36.483Z,24.66
2018-06-16T10:24:36.488Z,24.84
2018-06-16T10:25:36.496Z,24.76
2018-06-16T10:26:36.503Z,24.61
2018-06-16T10:27:36.506Z,24.65
2018-06-16T10:28:36.518Z,24.55
2018-06-16T10:29:36.528Z,24.57
2018-06-16T10:30:36.536Z,24.68
2018-06-16T10:31:36.543Z,24.81
2018-06-16T10:32:36.550Z,24.86
2018-06-16T10:33:36.559Z,24.92
2018-06-16T10:34:36.570Z,25.07
2018-06-16T10:35:36.578Z,25.22
2018-06-16T10:36:36.587Z,25.25
2018-06-16T10:37:36.594Z,25.26
2018-06-16T10:38:36.600Z,25.25
2018-06-16T10:39:36.615Z,25.25
2018-06-16T10:40:36.614Z,25.35
2018-06-16T10:41:36.626Z,25.51
2018-06-16T10:42:36.635Z,25.53
2018-06-16T10:43:36.643Z,25.66
2018-06-16T10:44:36.650Z,25.84
2018-06-16T10:45:36.660Z,25.91
2018-06-16T10:46:36.671Z,25.98
2018-06-16T10:47:36.675Z,26.16
2018-06-16T10:48:36.684Z,26.31
2018-06-16T10:49:36.690Z,26.33
2018-06-16T10:50:36.701Z,26.31
2018-06-16T10:51:36.711Z,26.33
2018-06-16T10:52:36.724Z,26.38
2018-06-16T10:53:36.729Z,26.40
2018-06-16T10:54:36.732Z,26.41
2018-06-16T10:55:36.748Z,26.40
2018-06-16T10:56:36.756Z,26.38
2018-06-16T10:57:36.766Z,26.25
2018-06-16T10:58:36.775Z,26.26
2018-06-16T10:59:36.783Z,26.23
2018-06-16T11:00:36.792Z,26.28
2018-06-16T11:01:36.804Z,26.18
2018-06-16T11:02:36.815Z,26.31
2018-06-16T11:03:36.821Z,26.37
2018-06-16T11:04:36.829Z,26.37
2018-06-16T11:05:36.840Z,26.59
2018-06-16T11:06:36.844Z,26.43
2018-06-16T11:07:36.862Z,26.40
2018-06-16T11:08:36.869Z,26.34
2018-06-16T11:09:36.877Z,26.37
2018-06-16T11:10:36.885Z,26.47
2018-06-16T11:11:36.897Z,26.55
2018-06-16T11:12:36.905Z,26.58
2018-06-16T11:13:36.914Z,26.63
2018-06-16T11:14:36.931Z,26.59
2018-06-16T11:15:36.934Z,26.74
2018-06-16T11:16:36.943Z,26.68
2018-06-16T11:17:36.956Z,27.02
2018-06-16T11:18:36.964Z,27.10
2018-06-16T11:19:36.974Z,26.70
2018-06-16T11:20:36.980Z,26.81
2018-06-16T11:21:36.994Z,26.99
2018-06-16T11:22:37.003Z,27.37
2018-06-16T11:23:37.010Z,27.52
2018-06-16T11:24:37.017Z,27.78
2018-06-16T11:25:37.026Z,27.92
2018-06-16T11:26:37.036Z,27.93
2018-06-16T11:27:37.048Z,28.00
2018-06-16T11:28:37.062Z,27.95
2018-06-16T11:29:37.084Z,27.98
2018-06-16T11:30:37.086Z,27.80
2018-06-16T11:31:37.093Z,27.71
2018-06-16T11:32:37.107Z,27.70
2018-06-16T11:33:37.115Z,27.60
2018-06-16T11:34:37.136Z,27.68
2018-06-16T11:35:37.142Z,27.55
2018-06-16T11:36:37.148Z,27.35
2018-06-16T11:37:37.160Z,27.08
2018-06-16T11:38:37.171Z,27.12
2018-06-16T11:39:37.178Z,26.97
2018-06-16T11:40:37.191Z,26.97
2018-06-16T11:41:37.199Z,27.00
2018-06-16T11:42:37.214Z,27.08
2018-06-16T11:43:37.222Z,27.11
2018-06-16T11:44:37.232Z,27.12
2018-06-16T11:45:37.245Z,27.20
2018-06-16T11:46:37.252Z,27.03
2018-06-16T11:47:37.263Z,27.03
2018-06-16T11:48:37.315Z,26.93
2018-06-16T11:49:37.290Z,26.85
2018-06-16T11:50:37.292Z,26.74
2018-06-16T11:51:37.305Z,26.58
2018-06-16T11:52:37.308Z,26.51
2018-06-16T11:53:37.319Z,26.37
2018-06-16T11:54:37.333Z,26.43
2018-06-16T11:55:37.344Z,26.41
2018-06-16T11:56:37.352Z,26.25
2018-06-16T11:57:37.424Z,26.33
2018-06-16T11:58:37.371Z,26.33
2018-06-16T11:59:37.381Z,26.37
2018-06-16T12:00:37.384Z,26.37
2018-06-16T12:01:37.402Z,26.31
2018-06-16T12:02:37.411Z,26.40
2018-06-16T12:03:37.419Z,26.59
2018-06-16T12:04:37.431Z,26.73
2018-06-16T12:05:37.439Z,26.73
2018-06-16T12:06:37.447Z,26.78
2018-06-16T12:07:37.459Z,26.88
2018-06-16T12:08:37.467Z,26.85
2018-06-16T12:09:37.477Z,26.85
2018-06-16T12:10:37.483Z,26.90
2018-06-16T12:11:37.489Z,26.97
2018-06-16T12:12:37.503Z,27.02
2018-06-16T12:13:37.523Z,27.08
2018-06-16T12:14:37.526Z,27.15
2018-06-16T12:15:37.536Z,27.10
2018-06-16T12:16:37.542Z,27.15
2018-06-16T12:17:37.545Z,27.26
2018-06-16T12:18:37.562Z,27.32
2018-06-16T12:19:37.569Z,27.36
2018-06-16T12:20:37.580Z,27.22
2018-06-16T12:21:37.590Z,27.18
2018-06-16T12:22:37.603Z,27.10
2018-06-16T12:23:37.609Z,27.00
2018-06-16T12:24:37.619Z,27.14
2018-06-16T12:25:37.626Z,27.21
2018-06-16T12:26:37.639Z,27.22
2018-06-16T12:27:37.651Z,27.27
2018-06-16T12:28:37.659Z,27.37
2018-06-16T12:29:37.708Z,27.45
2018-06-16T12:30:37.681Z,27.48
2018-06-16T12:31:37.688Z,27.36
2018-06-16T12:32:37.695Z,27.44
2018-06-16T12:33:37.711Z,27.40
2018-06-16T12:34:37.716Z,27.55
2018-06-16T12:35:37.727Z,27.59
2018-06-16T12:36:37.738Z,27.64
2018-06-16T12:37:37.745Z,27.67
2018-06-16T12:38:37.758Z,27.60
2018-06-16T12:39:37.769Z,27.63
2018-06-16T12:40:37.779Z,27.71
2018-06-16T12:41:37.787Z,27.77
2018-06-16T12:42:37.799Z,27.90
2018-06-16T12:43:37.807Z,27.80
2018-06-16T12:44:37.845Z,27.89
2018-06-16T12:45:37.828Z,28.04
2018-06-16T12:46:37.838Z,28.22
2018-06-16T12:47:37.849Z,28.29
2018-06-16T12:48:37.859Z,28.49
2018-06-16T12:49:37.869Z,28.63
2018-06-16T12:50:37.875Z,28.56
2018-06-16T12:51:37.891Z,28.74
2018-06-16T12:52:37.899Z,28.78